sensor_id;sensor_type;location;lat;lon;timestamp;P1;durP1;ratioP1;P2;durP2;ratioP2
74541;SDS011;63015;45.378;20.360;2023-09-19T00:00:27;7.32;;;2.42;;
74541;SDS011;63015;45.378;20.360;2023-09-19T00:02:28;5.10;;;1.75;;
74541;SDS011;63015;45.378;20.360;2023-09-19T00:04:30;5.60;;;2.60;;
74541;SDS011;63015;45.378;20.360;2023-09-19T00:06:32;6.85;;;3.13;;
74541;SDS011;63015;45.378;20.360;2023-09-19T00:08:35;6.13;;;2.75;;
74541;SDS011;63015;45.378;20.360;2023-09-19T00:10:36;8.50;;;2.63;;
74541;SDS011;63015;45.378;20.360;2023-09-19T00:12:37;5.78;;;2.83;;
74541;SDS011;63015;45.378;20.360;2023-09-19T00:14:42;6.00;;;2.60;;
74541;SDS011;63015;45.378;20.360;2023-09-19T00:16:43;5.38;;;2.33;;
74541;SDS011;63015;45.378;20.360;2023-09-19T00:18:44;11.35;;;2.85;;
74541;SDS011;63015;45.378;20.360;2023-09-19T00:20:45;5.07;;;2.47;;
74541;SDS011;63015;45.378;20.360;2023-09-19T00:22:49;9.45;;;2.60;;
74541;SDS011;63015;45.378;20.360;2023-09-19T00:24:53;9.25;;;2.88;;
74541;SDS011;63015;45.378;20.360;2023-09-19T00:26:55;5.72;;;2.65;;
74541;SDS011;63015;45.378;20.360;2023-09-19T00:28:55;8.05;;;2.50;;
74541;SDS011;63015;45.378;20.360;2023-09-19T00:30:57;6.90;;;2.30;;
74541;SDS011;63015;45.378;20.360;2023-09-19T00:33:01;6.00;;;2.78;;
74541;SDS011;63015;45.378;20.360;2023-09-19T00:35:06;5.53;;;2.30;;
74541;SDS011;63015;45.378;20.360;2023-09-19T00:39:12;6.68;;;2.70;;
74541;SDS011;63015;45.378;20.360;2023-09-19T00:41:12;6.78;;;2.35;;
74541;SDS011;63015;45.378;20.360;2023-09-19T00:43:13;6.57;;;2.60;;
74541;SDS011;63015;45.378;20.360;2023-09-19T00:45:14;8.30;;;2.58;;
74541;SDS011;63015;45.378;20.360;2023-09-19T00:47:16;8.07;;;2.28;;
74541;SDS011;63015;45.378;20.360;2023-09-19T00:49:18;6.00;;;2.58;;
74541;SDS011;63015;45.378;20.360;2023-09-19T00:51:22;6.95;;;2.58;;
74541;SDS011;63015;45.378;20.360;2023-09-19T00:53:25;6.38;;;2.67;;
74541;SDS011;63015;45.378;20.360;2023-09-19T00:55:28;5.25;;;2.95;;
74541;SDS011;63015;45.378;20.360;2023-09-19T00:57:30;6.15;;;2.35;;
74541;SDS011;63015;45.378;20.360;2023-09-19T00:59:32;8.00;;;3.00;;
74541;SDS011;63015;45.378;20.360;2023-09-19T01:01:33;6.95;;;3.08;;
74541;SDS011;63015;45.378;20.360;2023-09-19T01:03:37;6.93;;;3.08;;
74541;SDS011;63015;45.378;20.360;2023-09-19T01:05:38;5.80;;;2.70;;
74541;SDS011;63015;45.378;20.360;2023-09-19T01:07:39;8.43;;;3.58;;
74541;SDS011;63015;45.378;20.360;2023-09-19T01:09:44;7.00;;;2.95;;
74541;SDS011;63015;45.378;20.360;2023-09-19T01:11:45;6.80;;;2.67;;
74541;SDS011;63015;45.378;20.360;2023-09-19T01:14:12;5.88;;;2.72;;
74541;SDS011;63015;45.378;20.360;2023-09-19T01:16:45;6.22;;;2.90;;
74541;SDS011;63015;45.378;20.360;2023-09-19T01:30:32;6.40;;;3.13;;
74541;SDS011;63015;45.378;20.360;2023-09-19T01:32:36;10.05;;;3.17;;
74541;SDS011;63015;45.378;20.360;2023-09-19T01:34:44;7.63;;;3.70;;
74541;SDS011;63015;45.378;20.360;2023-09-19T01:36:48;5.85;;;2.97;;
74541;SDS011;63015;45.378;20.360;2023-09-19T01:38:50;7.88;;;2.90;;
74541;SDS011;63015;45.378;20.360;2023-09-19T01:41:03;5.43;;;2.90;;
74541;SDS011;63015;45.378;20.360;2023-09-19T01:43:20;8.00;;;2.72;;
74541;SDS011;63015;45.378;20.360;2023-09-19T01:47:55;8.45;;;2.95;;
74541;SDS011;63015;45.378;20.360;2023-09-19T01:52:31;9.38;;;3.13;;
74541;SDS011;63015;45.378;20.360;2023-09-19T01:54:50;7.15;;;3.30;;
74541;SDS011;63015;45.378;20.360;2023-09-19T01:59:10;5.25;;;3.20;;
74541;SDS011;63015;45.378;20.360;2023-09-19T02:01:17;5.60;;;3.38;;
74541;SDS011;63015;45.378;20.360;2023-09-19T02:03:22;5.78;;;3.00;;
74541;SDS011;63015;45.378;20.360;2023-09-19T02:05:24;6.68;;;3.10;;
74541;SDS011;63015;45.378;20.360;2023-09-19T02:07:25;4.75;;;2.70;;
74541;SDS011;63015;45.378;20.360;2023-09-19T02:09:27;5.97;;;2.80;;
74541;SDS011;63015;45.378;20.360;2023-09-19T02:11:28;5.55;;;2.55;;
74541;SDS011;63015;45.378;20.360;2023-09-19T02:13:29;7.88;;;3.65;;
74541;SDS011;63015;45.378;20.360;2023-09-19T02:15:30;5.63;;;3.00;;
74541;SDS011;63015;45.378;20.360;2023-09-19T02:17:34;13.15;;;3.60;;
74541;SDS011;63015;45.378;20.360;2023-09-19T02:19:35;9.27;;;3.75;;
74541;SDS011;63015;45.378;20.360;2023-09-19T02:21:37;7.35;;;4.10;;
74541;SDS011;63015;45.378;20.360;2023-09-19T02:23:40;12.98;;;3.88;;
74541;SDS011;63015;45.378;20.360;2023-09-19T02:25:41;9.15;;;3.58;;
74541;SDS011;63015;45.378;20.360;2023-09-19T02:27:45;7.60;;;4.35;;
74541;SDS011;63015;45.378;20.360;2023-09-19T02:29:45;6.80;;;3.42;;
74541;SDS011;63015;45.378;20.360;2023-09-19T02:31:46;7.68;;;3.55;;
74541;SDS011;63015;45.378;20.360;2023-09-19T02:33:48;7.30;;;3.50;;
74541;SDS011;63015;45.378;20.360;2023-09-19T02:35:49;12.30;;;3.55;;
74541;SDS011;63015;45.378;20.360;2023-09-19T02:37:50;9.93;;;4.20;;
74541;SDS011;63015;45.378;20.360;2023-09-19T02:39:52;10.38;;;3.25;;
74541;SDS011;63015;45.378;20.360;2023-09-19T02:41:53;8.55;;;3.53;;
74541;SDS011;63015;45.378;20.360;2023-09-19T02:43:53;5.82;;;3.25;;
74541;SDS011;63015;45.378;20.360;2023-09-19T02:45:54;6.15;;;3.65;;
74541;SDS011;63015;45.378;20.360;2023-09-19T02:47:55;10.18;;;3.30;;
74541;SDS011;63015;45.378;20.360;2023-09-19T02:49:56;7.47;;;3.08;;
74541;SDS011;63015;45.378;20.360;2023-09-19T02:51:57;7.28;;;3.50;;
74541;SDS011;63015;45.378;20.360;2023-09-19T02:53:59;6.55;;;3.15;;
74541;SDS011;63015;45.378;20.360;2023-09-19T02:56:00;10.15;;;4.10;;
74541;SDS011;63015;45.378;20.360;2023-09-19T02:58:01;7.10;;;3.17;;
74541;SDS011;63015;45.378;20.360;2023-09-19T03:00:03;12.57;;;3.30;;
74541;SDS011;63015;45.378;20.360;2023-09-19T03:02:04;4.93;;;2.72;;
74541;SDS011;63015;45.378;20.360;2023-09-19T03:04:05;6.15;;;2.97;;
74541;SDS011;63015;45.378;20.360;2023-09-19T03:06:07;5.28;;;3.05;;
74541;SDS011;63015;45.378;20.360;2023-09-19T03:08:09;8.38;;;3.80;;
74541;SDS011;63015;45.378;20.360;2023-09-19T03:10:10;5.78;;;3.40;;
74541;SDS011;63015;45.378;20.360;2023-09-19T03:12:11;6.75;;;2.78;;
74541;SDS011;63015;45.378;20.360;2023-09-19T03:14:12;6.90;;;3.35;;
74541;SDS011;63015;45.378;20.360;2023-09-19T03:16:13;7.90;;;3.50;;
74541;SDS011;63015;45.378;20.360;2023-09-19T03:18:15;7.75;;;3.42;;
74541;SDS011;63015;45.378;20.360;2023-09-19T03:20:16;5.43;;;2.88;;
74541;SDS011;63015;45.378;20.360;2023-09-19T03:22:17;9.02;;;3.67;;
74541;SDS011;63015;45.378;20.360;2023-09-19T03:24:18;7.15;;;4.13;;
74541;SDS011;63015;45.378;20.360;2023-09-19T03:26:20;6.28;;;2.83;;
74541;SDS011;63015;45.378;20.360;2023-09-19T03:28:22;7.28;;;3.88;;
74541;SDS011;63015;45.378;20.360;2023-09-19T03:30:24;8.75;;;4.10;;
74541;SDS011;63015;45.378;20.360;2023-09-19T03:32:25;9.07;;;3.75;;
74541;SDS011;63015;45.378;20.360;2023-09-19T03:34:26;9.25;;;4.20;;
74541;SDS011;63015;45.378;20.360;2023-09-19T03:36:28;7.57;;;3.50;;
74541;SDS011;63015;45.378;20.360;2023-09-19T03:38:30;6.93;;;3.10;;
74541;SDS011;63015;45.378;20.360;2023-09-19T03:40:32;6.68;;;3.38;;
74541;SDS011;63015;45.378;20.360;2023-09-19T03:42:32;6.68;;;3.40;;
74541;SDS011;63015;45.378;20.360;2023-09-19T03:44:36;8.70;;;3.45;;
74541;SDS011;63015;45.378;20.360;2023-09-19T03:46:37;9.07;;;3.72;;
74541;SDS011;63015;45.378;20.360;2023-09-19T03:48:39;7.75;;;3.50;;
74541;SDS011;63015;45.378;20.360;2023-09-19T03:50:39;4.82;;;2.78;;
74541;SDS011;63015;45.378;20.360;2023-09-19T03:52:40;9.85;;;3.85;;
74541;SDS011;63015;45.378;20.360;2023-09-19T03:54:41;7.85;;;3.55;;
74541;SDS011;63015;45.378;20.360;2023-09-19T03:56:43;7.05;;;3.40;;
74541;SDS011;63015;45.378;20.360;2023-09-19T03:58:44;8.05;;;3.55;;
74541;SDS011;63015;45.378;20.360;2023-09-19T04:00:44;8.48;;;3.55;;
74541;SDS011;63015;45.378;20.360;2023-09-19T04:02:45;11.80;;;3.75;;
74541;SDS011;63015;45.378;20.360;2023-09-19T04:04:46;6.75;;;3.55;;
74541;SDS011;63015;45.378;20.360;2023-09-19T04:06:47;9.35;;;3.75;;
74541;SDS011;63015;45.378;20.360;2023-09-19T04:08:47;5.45;;;3.47;;
74541;SDS011;63015;45.378;20.360;2023-09-19T04:10:48;7.80;;;3.58;;
74541;SDS011;63015;45.378;20.360;2023-09-19T04:12:51;12.05;;;3.50;;
74541;SDS011;63015;45.378;20.360;2023-09-19T04:14:53;7.88;;;3.60;;
74541;SDS011;63015;45.378;20.360;2023-09-19T04:16:54;6.35;;;3.25;;
74541;SDS011;63015;45.378;20.360;2023-09-19T04:18:55;9.48;;;4.28;;
74541;SDS011;63015;45.378;20.360;2023-09-19T04:20:55;9.10;;;4.63;;
74541;SDS011;63015;45.378;20.360;2023-09-19T04:22:56;7.88;;;4.28;;
74541;SDS011;63015;45.378;20.360;2023-09-19T04:24:57;9.10;;;4.30;;
74541;SDS011;63015;45.378;20.360;2023-09-19T04:26:57;9.85;;;4.63;;
74541;SDS011;63015;45.378;20.360;2023-09-19T04:28:59;9.32;;;3.92;;
74541;SDS011;63015;45.378;20.360;2023-09-19T04:31:01;8.43;;;3.58;;
74541;SDS011;63015;45.378;20.360;2023-09-19T04:33:01;9.98;;;4.13;;
74541;SDS011;63015;45.378;20.360;2023-09-19T04:35:03;8.48;;;3.95;;
74541;SDS011;63015;45.378;20.360;2023-09-19T04:37:06;8.02;;;4.05;;
74541;SDS011;63015;45.378;20.360;2023-09-19T04:39:07;6.43;;;3.80;;
74541;SDS011;63015;45.378;20.360;2023-09-19T04:41:08;6.78;;;3.95;;
74541;SDS011;63015;45.378;20.360;2023-09-19T04:43:08;8.93;;;3.50;;
74541;SDS011;63015;45.378;20.360;2023-09-19T04:45:09;5.70;;;3.42;;
74541;SDS011;63015;45.378;20.360;2023-09-19T04:47:10;7.45;;;4.10;;
74541;SDS011;63015;45.378;20.360;2023-09-19T04:49:12;7.65;;;4.13;;
74541;SDS011;63015;45.378;20.360;2023-09-19T04:51:13;6.72;;;3.88;;
74541;SDS011;63015;45.378;20.360;2023-09-19T04:53:15;6.10;;;3.72;;
74541;SDS011;63015;45.378;20.360;2023-09-19T04:55:16;7.32;;;3.50;;
74541;SDS011;63015;45.378;20.360;2023-09-19T04:57:18;10.35;;;3.90;;
74541;SDS011;63015;45.378;20.360;2023-09-19T04:59:18;7.93;;;3.65;;
74541;SDS011;63015;45.378;20.360;2023-09-19T05:01:19;7.30;;;3.92;;
74541;SDS011;63015;45.378;20.360;2023-09-19T05:03:23;8.95;;;4.18;;
74541;SDS011;63015;45.378;20.360;2023-09-19T05:05:23;6.35;;;3.60;;
74541;SDS011;63015;45.378;20.360;2023-09-19T05:07:25;8.60;;;3.75;;
74541;SDS011;63015;45.378;20.360;2023-09-19T05:09:26;6.68;;;4.00;;
74541;SDS011;63015;45.378;20.360;2023-09-19T05:11:27;8.20;;;4.10;;
74541;SDS011;63015;45.378;20.360;2023-09-19T05:13:30;7.07;;;4.20;;
74541;SDS011;63015;45.378;20.360;2023-09-19T05:15:31;7.28;;;3.72;;
74541;SDS011;63015;45.378;20.360;2023-09-19T05:17:31;8.40;;;3.90;;
74541;SDS011;63015;45.378;20.360;2023-09-19T05:19:33;7.72;;;4.13;;
74541;SDS011;63015;45.378;20.360;2023-09-19T05:21:35;9.60;;;3.80;;
74541;SDS011;63015;45.378;20.360;2023-09-19T05:23:36;9.30;;;4.10;;
74541;SDS011;63015;45.378;20.360;2023-09-19T05:25:37;6.60;;;3.72;;
74541;SDS011;63015;45.378;20.360;2023-09-19T05:27:39;6.78;;;3.30;;
74541;SDS011;63015;45.378;20.360;2023-09-19T05:29:40;8.57;;;3.72;;
74541;SDS011;63015;45.378;20.360;2023-09-19T05:31:42;8.68;;;3.88;;
74541;SDS011;63015;45.378;20.360;2023-09-19T05:33:43;11.57;;;4.00;;
74541;SDS011;63015;45.378;20.360;2023-09-19T05:35:43;6.70;;;3.78;;
74541;SDS011;63015;45.378;20.360;2023-09-19T05:37:47;7.10;;;3.58;;
74541;SDS011;63015;45.378;20.360;2023-09-19T05:39:51;7.90;;;3.80;;
74541;SDS011;63015;45.378;20.360;2023-09-19T05:41:51;7.40;;;3.35;;
74541;SDS011;63015;45.378;20.360;2023-09-19T05:43:52;7.75;;;3.83;;
74541;SDS011;63015;45.378;20.360;2023-09-19T05:45:52;7.35;;;3.90;;
74541;SDS011;63015;45.378;20.360;2023-09-19T05:47:53;8.68;;;3.70;;
74541;SDS011;63015;45.378;20.360;2023-09-19T05:50:04;5.45;;;3.38;;
74541;SDS011;63015;45.378;20.360;2023-09-19T05:52:05;6.50;;;3.60;;
74541;SDS011;63015;45.378;20.360;2023-09-19T05:54:06;6.40;;;3.22;;
74541;SDS011;63015;45.378;20.360;2023-09-19T05:56:07;6.22;;;3.60;;
74541;SDS011;63015;45.378;20.360;2023-09-19T05:58:09;6.88;;;3.53;;
74541;SDS011;63015;45.378;20.360;2023-09-19T06:00:10;6.18;;;3.10;;
74541;SDS011;63015;45.378;20.360;2023-09-19T06:02:14;9.30;;;3.60;;
74541;SDS011;63015;45.378;20.360;2023-09-19T06:04:15;8.13;;;3.58;;
74541;SDS011;63015;45.378;20.360;2023-09-19T06:06:16;9.48;;;3.70;;
74541;SDS011;63015;45.378;20.360;2023-09-19T06:08:16;6.53;;;3.90;;
74541;SDS011;63015;45.378;20.360;2023-09-19T06:10:17;8.20;;;3.75;;
74541;SDS011;63015;45.378;20.360;2023-09-19T06:12:18;6.55;;;3.53;;
74541;SDS011;63015;45.378;20.360;2023-09-19T06:14:19;8.32;;;3.63;;
74541;SDS011;63015;45.378;20.360;2023-09-19T06:16:19;7.20;;;3.72;;
74541;SDS011;63015;45.378;20.360;2023-09-19T06:18:20;9.15;;;3.45;;
74541;SDS011;63015;45.378;20.360;2023-09-19T06:20:21;6.57;;;3.63;;
74541;SDS011;63015;45.378;20.360;2023-09-19T06:22:23;10.23;;;3.78;;
74541;SDS011;63015;45.378;20.360;2023-09-19T06:24:24;7.82;;;3.55;;
74541;SDS011;63015;45.378;20.360;2023-09-19T06:26:25;8.07;;;3.45;;
74541;SDS011;63015;45.378;20.360;2023-09-19T06:28:27;9.82;;;3.90;;
74541;SDS011;63015;45.378;20.360;2023-09-19T06:30:28;7.18;;;3.45;;
74541;SDS011;63015;45.378;20.360;2023-09-19T06:32:29;7.97;;;3.22;;
74541;SDS011;63015;45.378;20.360;2023-09-19T06:34:30;7.30;;;3.67;;
74541;SDS011;63015;45.378;20.360;2023-09-19T06:36:30;7.03;;;3.33;;
74541;SDS011;63015;45.378;20.360;2023-09-19T06:38:31;8.50;;;3.83;;
74541;SDS011;63015;45.378;20.360;2023-09-19T06:40:34;9.45;;;3.47;;
74541;SDS011;63015;45.378;20.360;2023-09-19T06:42:35;6.75;;;3.13;;
74541;SDS011;63015;45.378;20.360;2023-09-19T06:44:37;7.93;;;3.45;;
74541;SDS011;63015;45.378;20.360;2023-09-19T06:46:37;7.97;;;3.78;;
74541;SDS011;63015;45.378;20.360;2023-09-19T06:48:39;10.25;;;3.55;;
74541;SDS011;63015;45.378;20.360;2023-09-19T06:50:39;7.85;;;3.72;;
74541;SDS011;63015;45.378;20.360;2023-09-19T06:52:41;8.43;;;3.20;;
74541;SDS011;63015;45.378;20.360;2023-09-19T06:54:42;7.97;;;3.95;;
74541;SDS011;63015;45.378;20.360;2023-09-19T06:56:42;6.95;;;3.75;;
74541;SDS011;63015;45.378;20.360;2023-09-19T06:58:43;10.57;;;3.30;;
74541;SDS011;63015;45.378;20.360;2023-09-19T07:00:44;7.75;;;3.63;;
74541;SDS011;63015;45.378;20.360;2023-09-19T07:02:45;7.60;;;3.65;;
74541;SDS011;63015;45.378;20.360;2023-09-19T07:04:54;7.78;;;3.65;;
74541;SDS011;63015;45.378;20.360;2023-09-19T07:06:55;9.93;;;3.50;;
74541;SDS011;63015;45.378;20.360;2023-09-19T07:08:55;8.25;;;3.65;;
74541;SDS011;63015;45.378;20.360;2023-09-19T07:10:56;8.02;;;3.80;;
74541;SDS011;63015;45.378;20.360;2023-09-19T07:13:01;6.72;;;3.60;;
74541;SDS011;63015;45.378;20.360;2023-09-19T07:15:03;8.70;;;3.90;;
74541;SDS011;63015;45.378;20.360;2023-09-19T07:17:06;6.93;;;3.58;;
74541;SDS011;63015;45.378;20.360;2023-09-19T07:19:06;6.05;;;3.25;;
74541;SDS011;63015;45.378;20.360;2023-09-19T07:21:07;6.55;;;3.95;;
74541;SDS011;63015;45.378;20.360;2023-09-19T07:23:08;7.05;;;4.05;;
74541;SDS011;63015;45.378;20.360;2023-09-19T07:25:09;8.52;;;3.47;;
74541;SDS011;63015;45.378;20.360;2023-09-19T07:27:10;6.65;;;3.97;;
74541;SDS011;63015;45.378;20.360;2023-09-19T07:29:10;7.40;;;3.88;;
74541;SDS011;63015;45.378;20.360;2023-09-19T07:31:11;10.40;;;3.45;;
74541;SDS011;63015;45.378;20.360;2023-09-19T07:33:14;7.90;;;3.72;;
74541;SDS011;63015;45.378;20.360;2023-09-19T07:35:14;7.20;;;3.13;;
74541;SDS011;63015;45.378;20.360;2023-09-19T07:37:15;9.82;;;3.83;;
74541;SDS011;63015;45.378;20.360;2023-09-19T07:39:16;8.45;;;3.80;;
74541;SDS011;63015;45.378;20.360;2023-09-19T07:41:17;7.38;;;3.47;;
74541;SDS011;63015;45.378;20.360;2023-09-19T07:43:18;9.63;;;3.88;;
74541;SDS011;63015;45.378;20.360;2023-09-19T07:45:18;5.90;;;3.58;;
74541;SDS011;63015;45.378;20.360;2023-09-19T07:47:19;9.48;;;3.85;;
74541;SDS011;63015;45.378;20.360;2023-09-19T07:49:24;9.85;;;4.30;;
74541;SDS011;63015;45.378;20.360;2023-09-19T07:51:24;8.70;;;3.53;;
74541;SDS011;63015;45.378;20.360;2023-09-19T07:53:25;8.20;;;3.75;;
74541;SDS011;63015;45.378;20.360;2023-09-19T07:55:26;7.97;;;4.05;;
74541;SDS011;63015;45.378;20.360;2023-09-19T07:57:26;7.05;;;3.85;;
74541;SDS011;63015;45.378;20.360;2023-09-19T07:59:29;9.45;;;3.72;;
74541;SDS011;63015;45.378;20.360;2023-09-19T08:01:29;7.65;;;4.07;;
74541;SDS011;63015;45.378;20.360;2023-09-19T08:03:30;15.75;;;4.45;;
74541;SDS011;63015;45.378;20.360;2023-09-19T08:05:31;7.80;;;3.78;;
74541;SDS011;63015;45.378;20.360;2023-09-19T08:07:33;10.13;;;3.55;;
74541;SDS011;63015;45.378;20.360;2023-09-19T08:09:36;8.68;;;3.67;;
74541;SDS011;63015;45.378;20.360;2023-09-19T08:11:38;7.90;;;3.42;;
74541;SDS011;63015;45.378;20.360;2023-09-19T08:13:39;7.43;;;3.78;;
74541;SDS011;63015;45.378;20.360;2023-09-19T08:15:49;9.23;;;3.88;;
74541;SDS011;63015;45.378;20.360;2023-09-19T08:17:51;9.43;;;4.22;;
74541;SDS011;63015;45.378;20.360;2023-09-19T08:19:51;7.82;;;3.90;;
74541;SDS011;63015;45.378;20.360;2023-09-19T08:21:52;7.93;;;3.33;;
74541;SDS011;63015;45.378;20.360;2023-09-19T08:23:54;11.38;;;4.35;;
74541;SDS011;63015;45.378;20.360;2023-09-19T08:25:57;9.43;;;3.95;;
74541;SDS011;63015;45.378;20.360;2023-09-19T08:28:03;9.68;;;4.30;;
74541;SDS011;63015;45.378;20.360;2023-09-19T08:30:08;8.80;;;4.03;;
74541;SDS011;63015;45.378;20.360;2023-09-19T08:32:11;9.40;;;3.92;;
74541;SDS011;63015;45.378;20.360;2023-09-19T08:34:11;7.75;;;4.07;;
74541;SDS011;63015;45.378;20.360;2023-09-19T08:36:12;7.93;;;3.78;;
74541;SDS011;63015;45.378;20.360;2023-09-19T08:38:14;9.27;;;4.20;;
74541;SDS011;63015;45.378;20.360;2023-09-19T08:40:15;10.07;;;4.22;;
74541;SDS011;63015;45.378;20.360;2023-09-19T08:42:16;8.63;;;3.90;;
74541;SDS011;63015;45.378;20.360;2023-09-19T08:44:18;8.98;;;3.92;;
74541;SDS011;63015;45.378;20.360;2023-09-19T08:46:19;8.15;;;3.92;;
74541;SDS011;63015;45.378;20.360;2023-09-19T08:48:25;10.98;;;4.22;;
74541;SDS011;63015;45.378;20.360;2023-09-19T08:50:28;8.77;;;3.75;;
74541;SDS011;63015;45.378;20.360;2023-09-19T08:52:32;9.35;;;4.25;;
74541;SDS011;63015;45.378;20.360;2023-09-19T08:54:37;8.48;;;3.97;;
74541;SDS011;63015;45.378;20.360;2023-09-19T08:56:40;7.97;;;3.90;;
74541;SDS011;63015;45.378;20.360;2023-09-19T08:58:45;9.18;;;4.20;;
74541;SDS011;63015;45.378;20.360;2023-09-19T09:00:48;13.18;;;4.85;;
74541;SDS011;63015;45.378;20.360;2023-09-19T09:02:52;7.53;;;4.40;;
74541;SDS011;63015;45.378;20.360;2023-09-19T09:06:57;8.18;;;4.18;;
74541;SDS011;63015;45.378;20.360;2023-09-19T09:08:58;8.73;;;3.80;;
74541;SDS011;63015;45.378;20.360;2023-09-19T09:10:59;7.22;;;4.35;;
74541;SDS011;63015;45.378;20.360;2023-09-19T09:13:00;8.18;;;3.75;;
74541;SDS011;63015;45.378;20.360;2023-09-19T09:15:03;7.03;;;3.80;;
74541;SDS011;63015;45.378;20.360;2023-09-19T09:17:05;9.48;;;4.22;;
74541;SDS011;63015;45.378;20.360;2023-09-19T09:19:05;12.75;;;4.30;;
74541;SDS011;63015;45.378;20.360;2023-09-19T09:21:06;11.00;;;4.45;;
74541;SDS011;63015;45.378;20.360;2023-09-19T09:23:07;9.13;;;4.28;;
74541;SDS011;63015;45.378;20.360;2023-09-19T09:25:08;8.52;;;3.80;;
74541;SDS011;63015;45.378;20.360;2023-09-19T09:27:08;10.85;;;4.40;;
74541;SDS011;63015;45.378;20.360;2023-09-19T09:29:13;12.70;;;3.90;;
74541;SDS011;63015;45.378;20.360;2023-09-19T09:31:23;13.63;;;4.45;;
74541;SDS011;63015;45.378;20.360;2023-09-19T09:33:25;14.88;;;5.13;;
74541;SDS011;63015;45.378;20.360;2023-09-19T09:35:26;15.32;;;4.35;;
74541;SDS011;63015;45.378;20.360;2023-09-19T09:37:27;13.02;;;4.55;;
74541;SDS011;63015;45.378;20.360;2023-09-19T09:39:30;15.95;;;5.13;;
74541;SDS011;63015;45.378;20.360;2023-09-19T09:41:36;9.77;;;4.28;;
74541;SDS011;63015;45.378;20.360;2023-09-19T09:43:38;10.30;;;4.75;;
74541;SDS011;63015;45.378;20.360;2023-09-19T09:45:40;12.38;;;4.80;;
74541;SDS011;63015;45.378;20.360;2023-09-19T09:47:49;9.90;;;4.05;;
74541;SDS011;63015;45.378;20.360;2023-09-19T09:49:56;8.23;;;4.50;;
74541;SDS011;63015;45.378;20.360;2023-09-19T09:52:07;10.38;;;4.03;;
74541;SDS011;63015;45.378;20.360;2023-09-19T09:54:16;10.45;;;4.28;;
74541;SDS011;63015;45.378;20.360;2023-09-19T09:56:20;10.60;;;4.45;;
74541;SDS011;63015;45.378;20.360;2023-09-19T09:58:20;11.55;;;4.45;;
74541;SDS011;63015;45.378;20.360;2023-09-19T10:00:25;14.70;;;4.80;;
74541;SDS011;63015;45.378;20.360;2023-09-19T10:02:40;9.95;;;4.88;;
74541;SDS011;63015;45.378;20.360;2023-09-19T10:04:40;14.43;;;5.18;;
74541;SDS011;63015;45.378;20.360;2023-09-19T10:06:51;12.95;;;4.63;;
74541;SDS011;63015;45.378;20.360;2023-09-19T10:09:02;13.00;;;4.95;;
74541;SDS011;63015;45.378;20.360;2023-09-19T10:11:17;16.40;;;5.22;;
74541;SDS011;63015;45.378;20.360;2023-09-19T10:13:20;13.70;;;5.25;;
74541;SDS011;63015;45.378;20.360;2023-09-19T10:15:25;12.02;;;4.63;;
74541;SDS011;63015;45.378;20.360;2023-09-19T10:17:27;11.80;;;4.70;;
74541;SDS011;63015;45.378;20.360;2023-09-19T10:19:33;14.15;;;5.38;;
74541;SDS011;63015;45.378;20.360;2023-09-19T10:21:37;12.45;;;4.78;;
74541;SDS011;63015;45.378;20.360;2023-09-19T10:23:39;17.15;;;4.65;;
74541;SDS011;63015;45.378;20.360;2023-09-19T10:25:45;14.50;;;4.82;;
74541;SDS011;63015;45.378;20.360;2023-09-19T10:27:47;12.48;;;4.45;;
74541;SDS011;63015;45.378;20.360;2023-09-19T10:29:50;14.60;;;5.20;;
74541;SDS011;63015;45.378;20.360;2023-09-19T10:31:55;10.82;;;4.32;;
74541;SDS011;63015;45.378;20.360;2023-09-19T10:33:58;12.35;;;4.40;;
74541;SDS011;63015;45.378;20.360;2023-09-19T10:36:02;11.48;;;4.93;;
74541;SDS011;63015;45.378;20.360;2023-09-19T10:38:05;12.93;;;4.53;;
74541;SDS011;63015;45.378;20.360;2023-09-19T10:40:09;15.15;;;5.05;;
74541;SDS011;63015;45.378;20.360;2023-09-19T10:42:13;13.63;;;4.03;;
74541;SDS011;63015;45.378;20.360;2023-09-19T10:44:17;13.40;;;4.90;;
74541;SDS011;63015;45.378;20.360;2023-09-19T10:46:25;13.35;;;4.72;;
74541;SDS011;63015;45.378;20.360;2023-09-19T10:48:26;9.88;;;5.03;;
74541;SDS011;63015;45.378;20.360;2023-09-19T10:50:30;13.30;;;4.97;;
74541;SDS011;63015;45.378;20.360;2023-09-19T10:52:38;13.60;;;4.82;;
74541;SDS011;63015;45.378;20.360;2023-09-19T10:54:42;18.27;;;5.70;;
74541;SDS011;63015;45.378;20.360;2023-09-19T10:56:52;12.15;;;5.43;;
74541;SDS011;63015;45.378;20.360;2023-09-19T11:01:10;16.65;;;5.55;;
74541;SDS011;63015;45.378;20.360;2023-09-19T11:05:18;16.85;;;5.07;;
74541;SDS011;63015;45.378;20.360;2023-09-19T11:07:19;14.50;;;5.70;;
74541;SDS011;63015;45.378;20.360;2023-09-19T11:09:20;15.10;;;5.15;;
74541;SDS011;63015;45.378;20.360;2023-09-19T11:11:39;13.10;;;4.82;;
74541;SDS011;63015;45.378;20.360;2023-09-19T11:13:43;18.58;;;5.38;;
74541;SDS011;63015;45.378;20.360;2023-09-19T11:17:57;14.27;;;5.45;;
74541;SDS011;63015;45.378;20.360;2023-09-19T11:22:12;16.65;;;4.60;;
74541;SDS011;63015;45.378;20.360;2023-09-19T11:26:39;22.00;;;6.15;;
74541;SDS011;63015;45.378;20.360;2023-09-19T11:28:43;17.63;;;5.40;;
74541;SDS011;63015;45.378;20.360;2023-09-19T11:30:45;21.67;;;5.32;;
74541;SDS011;63015;45.378;20.360;2023-09-19T11:35:23;23.40;;;5.85;;
74541;SDS011;63015;45.378;20.360;2023-09-19T11:38:00;16.75;;;4.32;;
74541;SDS011;63015;45.378;20.360;2023-09-19T11:40:10;21.10;;;4.70;;
74541;SDS011;63015;45.378;20.360;2023-09-19T11:44:54;13.65;;;4.25;;
74541;SDS011;63015;45.378;20.360;2023-09-19T11:46:56;16.38;;;3.75;;
74541;SDS011;63015;45.378;20.360;2023-09-19T11:49:05;15.27;;;3.47;;
74541;SDS011;63015;45.378;20.360;2023-09-19T11:51:16;20.88;;;3.92;;
74541;SDS011;63015;45.378;20.360;2023-09-19T11:53:21;14.80;;;3.70;;
74541;SDS011;63015;45.378;20.360;2023-09-19T11:55:23;15.90;;;3.60;;
74541;SDS011;63015;45.378;20.360;2023-09-19T11:57:25;15.82;;;3.30;;
74541;SDS011;63015;45.378;20.360;2023-09-19T11:59:28;17.33;;;3.35;;
74541;SDS011;63015;45.378;20.360;2023-09-19T12:01:31;14.02;;;2.97;;
74541;SDS011;63015;45.378;20.360;2023-09-19T12:03:33;17.88;;;3.03;;
74541;SDS011;63015;45.378;20.360;2023-09-19T12:05:40;15.32;;;3.30;;
74541;SDS011;63015;45.378;20.360;2023-09-19T12:07:44;15.77;;;3.03;;
74541;SDS011;63015;45.378;20.360;2023-09-19T12:09:49;12.30;;;3.42;;
74541;SDS011;63015;45.378;20.360;2023-09-19T12:12:03;13.15;;;3.22;;
74541;SDS011;63015;45.378;20.360;2023-09-19T12:14:03;12.07;;;3.40;;
74541;SDS011;63015;45.378;20.360;2023-09-19T12:16:11;15.50;;;2.67;;
74541;SDS011;63015;45.378;20.360;2023-09-19T12:18:28;18.30;;;3.03;;
74541;SDS011;63015;45.378;20.360;2023-09-19T12:20:44;17.52;;;3.33;;
74541;SDS011;63015;45.378;20.360;2023-09-19T12:22:48;15.10;;;2.90;;
74541;SDS011;63015;45.378;20.360;2023-09-19T12:24:49;13.07;;;2.65;;
74541;SDS011;63015;45.378;20.360;2023-09-19T12:26:51;18.38;;;2.97;;
74541;SDS011;63015;45.378;20.360;2023-09-19T12:28:52;15.65;;;3.17;;
74541;SDS011;63015;45.378;20.360;2023-09-19T12:30:54;12.02;;;3.05;;
74541;SDS011;63015;45.378;20.360;2023-09-19T12:32:55;17.95;;;3.15;;
74541;SDS011;63015;45.378;20.360;2023-09-19T12:34:58;9.57;;;3.08;;
74541;SDS011;63015;45.378;20.360;2023-09-19T12:37:12;15.48;;;2.83;;
74541;SDS011;63015;45.378;20.360;2023-09-19T12:39:34;13.35;;;2.88;;
74541;SDS011;63015;45.378;20.360;2023-09-19T12:41:36;14.15;;;2.85;;
74541;SDS011;63015;45.378;20.360;2023-09-19T12:43:38;13.90;;;2.90;;
74541;SDS011;63015;45.378;20.360;2023-09-19T12:45:42;15.05;;;2.88;;